createdAt,value
2022-10-01T00:01:15.483Z,95541.56
2022-10-01T00:03:42.741Z,95546.41
2022-10-01T00:06:12.224Z,95545.59
2022-10-01T00:08:41.677Z,95529.19
2022-10-01T00:11:18.063Z,95527.97
2022-10-01T00:13:44.826Z,95530.63
2022-10-01T00:16:14.410Z,95526.19
2022-10-01T00:18:43.297Z,95542.47
2022-10-01T00:21:13.250Z,95524.97
2022-10-01T00:23:40.501Z,95533.84
2022-10-01T00:26:13.022Z,95536.94
2022-10-01T00:28:41.250Z,95535.38
2022-10-01T00:31:09.820Z,95545.31
2022-10-01T00:33:36.885Z,95547.56
2022-10-01T00:36:05.048Z,95542.13
2022-10-01T00:38:31.941Z,95537.69
2022-10-01T00:40:58.442Z,95548.88
2022-10-01T00:43:32.030Z,95550.16
2022-10-01T00:46:16.956Z,95560.78
2022-10-01T00:48:55.037Z,95564.91
2022-10-01T00:51:22.191Z,95556.34
2022-10-01T00:53:48.810Z,95563.09
2022-10-01T00:56:15.453Z,95562.78
2022-10-01T00:58:42.837Z,95564.88
2022-10-01T01:01:09.388Z,95558.69
2022-10-01T01:03:35.958Z,95564.28
2022-10-01T01:06:02.426Z,95564.94
2022-10-01T01:08:29.209Z,95565.63
2022-10-01T01:11:03.819Z,95563.47
2022-10-01T01:13:37.002Z,95552.44
2022-10-01T01:16:25.649Z,95561.00
2022-10-01T01:19:08.677Z,95573.31
2022-10-01T01:21:46.974Z,95572.38
2022-10-01T01:24:32.015Z,95571.94
2022-10-01T01:27:20.132Z,95556.13
2022-10-01T01:30:13.992Z,95556.41
2022-10-01T01:32:52.482Z,95560.97
2022-10-01T01:35:33.891Z,95567.63
2022-10-01T01:38:34.900Z,95567.19
2022-10-01T01:41:04.944Z,95569.66
2022-10-01T01:43:37.812Z,95563.72
2022-10-01T01:46:08.540Z,95565.94
2022-10-01T01:48:39.322Z,95571.38
2022-10-01T01:51:25.775Z,95569.28
2022-10-01T01:53:53.789Z,95572.38
2022-10-01T01:56:20.586Z,95579.22
2022-10-01T01:58:47.399Z,95568.91
2022-10-01T02:01:39.862Z,95569.09
2022-10-01T02:04:23.163Z,95571.78
2022-10-01T02:06:58.141Z,95571.34
2022-10-01T02:09:36.992Z,95565.44
2022-10-01T02:12:18.347Z,95556.56
2022-10-01T02:15:20.671Z,95555.94
2022-10-01T02:18:18.318Z,95567.97
2022-10-01T02:21:11.209Z,95567.53
2022-10-01T02:23:48.733Z,95576.53
2022-10-01T02:26:20.925Z,95584.84
2022-10-01T02:28:51.859Z,95581.25
2022-10-01T02:31:22.021Z,95586.75
2022-10-01T02:33:53.373Z,95589.13
2022-10-01T02:36:25.067Z,95579.47
2022-10-01T02:38:55.302Z,95576.53
2022-10-01T02:41:28.807Z,95579.56
2022-10-01T02:44:10.189Z,95579.56
2022-10-01T02:46:56.362Z,95578.53
2022-10-01T02:49:25.462Z,95575.75
2022-10-01T02:52:10.200Z,95590.13
2022-10-01T02:54:42.607Z,95581.75
2022-10-01T02:57:09.052Z,95576.91
2022-10-01T02:59:35.600Z,95568.94
2022-10-01T03:02:02.189Z,95566.25
2022-10-01T03:04:28.698Z,95571.72
2022-10-01T03:06:55.210Z,95566.63
2022-10-01T03:09:21.656Z,95563.47
2022-10-01T03:11:48.123Z,95576.63
2022-10-01T03:14:14.571Z,95576.72
2022-10-01T03:16:41.053Z,95577.56
2022-10-01T03:19:07.518Z,95571.75
2022-10-01T03:21:34.250Z,95570.75
2022-10-01T03:24:00.906Z,95573.09
2022-10-01T03:26:27.344Z,95569.03
2022-10-01T03:28:53.832Z,95565.47
2022-10-01T03:31:20.325Z,95557.72
2022-10-01T03:33:46.835Z,95560.00
2022-10-01T03:36:13.258Z,95565.00
2022-10-01T03:38:39.807Z,95564.72
2022-10-01T03:41:06.340Z,95570.66
2022-10-01T03:43:32.803Z,95575.81
2022-10-01T03:45:59.418Z,95575.63
2022-10-01T03:48:25.911Z,95571.13
2022-10-01T03:50:57.660Z,95575.78
2022-10-01T03:53:25.492Z,95574.09
2022-10-01T03:55:51.980Z,95572.34
2022-10-01T03:58:18.913Z,95584.66
2022-10-01T04:00:47.212Z,95588.03
2022-10-01T04:03:17.733Z,95584.16
2022-10-01T04:05:45.667Z,95584.72
2022-10-01T04:08:13.706Z,95588.50
2022-10-01T04:10:41.425Z,95600.19
2022-10-01T04:13:28.020Z,95603.53
2022-10-01T04:15:54.567Z,95599.88
2022-10-01T04:18:21.036Z,95591.53
2022-10-01T04:20:48.491Z,95607.03
2022-10-01T04:23:15.765Z,95599.06
2022-10-01T04:25:42.414Z,95600.81
2022-10-01T04:28:11.630Z,95607.63
2022-10-01T04:30:41.354Z,95613.09
2022-10-01T04:33:13.898Z,95624.84
2022-10-01T04:35:40.650Z,95617.47
2022-10-01T04:38:11.763Z,95627.69
2022-10-01T04:40:38.757Z,95622.75
2022-10-01T04:43:06.732Z,95636.25
2022-10-01T04:45:33.183Z,95628.75
2022-10-01T04:47:59.692Z,95634.22
2022-10-01T04:50:27.536Z,95641.06
2022-10-01T04:52:54.577Z,95636.78
2022-10-01T04:55:22.707Z,95635.50
2022-10-01T04:57:49.591Z,95628.66
2022-10-01T05:00:21.654Z,95622.94
2022-10-01T05:02:50.262Z,95629.69
2022-10-01T05:05:19.124Z,95634.88
2022-10-01T05:07:46.020Z,95630.97
2022-10-01T05:10:19.035Z,95625.41
2022-10-01T05:12:46.480Z,95642.13
2022-10-01T05:15:14.688Z,95639.88
2022-10-01T05:17:41.127Z,95630.34
2022-10-01T05:20:10.038Z,95637.63
2022-10-01T05:22:36.518Z,95641.50
2022-10-01T05:25:03.069Z,95650.53
2022-10-01T05:27:30.948Z,95639.88
2022-10-01T05:29:57.416Z,95638.94
2022-10-01T05:32:23.904Z,95648.09
2022-10-01T05:34:53.569Z,95638.59
2022-10-01T05:37:20.594Z,95646.09
2022-10-01T05:39:47.228Z,95637.72
2022-10-01T05:42:13.937Z,95647.72
2022-10-01T05:44:40.382Z,95648.09
2022-10-01T05:47:07.648Z,95658.34
2022-10-01T05:49:34.262Z,95655.31
2022-10-01T05:52:01.014Z,95649.84
2022-10-01T05:54:28.415Z,95653.84
2022-10-01T05:56:55.995Z,95652.41
2022-10-01T05:59:22.432Z,95654.78
2022-10-01T06:01:49.003Z,95642.50
2022-10-01T06:04:15.608Z,95633.75
2022-10-01T06:06:42.038Z,95628.16
2022-10-01T06:09:08.805Z,95636.47
2022-10-01T06:11:38.856Z,95637.91
2022-10-01T06:14:06.177Z,95637.44
2022-10-01T06:16:32.671Z,95633.13
2022-10-01T06:18:59.212Z,95630.81
2022-10-01T06:21:27.068Z,95638.59
2022-10-01T06:23:54.141Z,95639.22
2022-10-01T06:26:20.952Z,95645.06
2022-10-01T06:28:51.883Z,95636.63
2022-10-01T06:31:19.128Z,95631.53
2022-10-01T06:33:45.728Z,95641.38
2022-10-01T06:36:12.174Z,95646.69
2022-10-01T06:38:38.641Z,95654.03
2022-10-01T06:41:05.217Z,95666.69
2022-10-01T06:43:33.056Z,95673.94
2022-10-01T06:46:03.996Z,95667.16
2022-10-01T06:48:31.280Z,95663.25
2022-10-01T06:50:58.484Z,95665.34
2022-10-01T06:53:26.641Z,95664.22
2022-10-01T06:55:53.096Z,95676.88
2022-10-01T06:58:22.133Z,95675.66
2022-10-01T07:00:50.161Z,95677.53
2022-10-01T07:03:21.933Z,95683.13
2022-10-01T07:05:49.867Z,95670.88
2022-10-01T07:08:17.416Z,95675.44
2022-10-01T07:10:44.247Z,95691.97
2022-10-01T07:13:16.936Z,95704.72
2022-10-01T07:15:44.214Z,95716.38
2022-10-01T07:18:12.148Z,95731.09
2022-10-01T07:20:40.087Z,95721.59
2022-10-01T07:23:10.643Z,95718.22
2022-10-01T07:25:38.682Z,95706.22
2022-10-01T07:28:08.345Z,95697.31
2022-10-01T07:30:35.328Z,95697.59
2022-10-01T07:33:01.812Z,95685.56
2022-10-01T07:35:28.407Z,95688.66
2022-10-01T07:37:54.913Z,95677.94
2022-10-01T07:40:21.601Z,95696.53
2022-10-01T07:42:55.853Z,95702.72
2022-10-01T07:45:23.742Z,95698.75
2022-10-01T07:47:54.465Z,95700.53
2022-10-01T07:50:21.201Z,95699.53
2022-10-01T07:52:55.216Z,95698.19
2022-10-01T07:55:24.512Z,95717.16
2022-10-01T07:57:53.025Z,95700.69
2022-10-01T08:00:20.967Z,95695.59
2022-10-01T08:02:49.669Z,95692.13
2022-10-01T08:05:17.569Z,95684.69
2022-10-01T08:07:45.576Z,95684.53
2022-10-01T08:10:12.966Z,95687.25
2022-10-01T08:12:39.964Z,95692.91
2022-10-01T08:15:07.205Z,95702.91
2022-10-01T08:17:34.072Z,95695.53
2022-10-01T08:20:01.035Z,95707.44
2022-10-01T08:22:27.558Z,95707.53
2022-10-01T08:24:54.014Z,95715.50
2022-10-01T08:27:20.647Z,95708.09
2022-10-01T08:29:47.182Z,95715.56
2022-10-01T08:32:13.757Z,95717.34
2022-10-01T08:34:40.420Z,95726.59
2022-10-01T08:37:06.896Z,95732.66
2022-10-01T08:39:33.358Z,95731.31
2022-10-01T08:42:25.941Z,95737.25
2022-10-01T08:44:53.419Z,95733.75
2022-10-01T08:47:29.274Z,95743.84
2022-10-01T08:50:27.301Z,95730.88
2022-10-01T08:53:04.195Z,95734.63
2022-10-01T08:55:34.200Z,95725.03
2022-10-01T08:58:07.021Z,95723.50
2022-10-01T09:00:39.393Z,95725.38
2022-10-01T09:03:11.843Z,95738.03
2022-10-01T09:06:04.539Z,95734.13
2022-10-01T09:09:17.312Z,95731.88
2022-10-01T09:11:49.758Z,95743.94
2022-10-01T09:14:45.357Z,95746.38
2022-10-01T09:17:43.801Z,95749.31
2022-10-01T09:20:33.279Z,95758.72
2022-10-01T09:23:28.504Z,95762.28
2022-10-01T09:25:57.324Z,95772.97
2022-10-01T09:28:29.089Z,95779.56
2022-10-01T09:31:10.998Z,95780.72
2022-10-01T09:33:42.485Z,95777.19
2022-10-01T09:36:26.527Z,95778.38
2022-10-01T09:39:18.688Z,95782.47
2022-10-01T09:41:45.705Z,95778.44
2022-10-01T09:44:19.012Z,95785.09
2022-10-01T09:46:46.907Z,95791.00
2022-10-01T09:49:31.562Z,95806.28
2022-10-01T09:52:05.728Z,95796.31
2022-10-01T09:54:42.961Z,95790.56
2022-10-01T09:57:20.594Z,95807.00
2022-10-01T10:00:08.082Z,95805.94
2022-10-01T10:02:48.407Z,95813.59
2022-10-01T10:05:21.136Z,95814.25
2022-10-01T10:07:53.838Z,95810.56
2022-10-01T10:10:30.443Z,95812.22
2022-10-01T10:13:04.714Z,95808.25
2022-10-01T10:15:31.869Z,95816.22
2022-10-01T10:18:08.869Z,95816.69
2022-10-01T10:20:41.806Z,95811.66
2022-10-01T10:23:09.360Z,95815.81
2022-10-01T10:25:35.874Z,95823.50
2022-10-01T10:28:02.458Z,95827.81
2022-10-01T10:30:29.528Z,95823.88
2022-10-01T10:33:05.344Z,95828.81
2022-10-01T10:35:32.170Z,95827.31
2022-10-01T10:37:59.065Z,95837.22
2022-10-01T10:40:42.366Z,95830.56
2022-10-01T10:43:22.255Z,95844.91
2022-10-01T10:45:52.474Z,95856.84
2022-10-01T10:48:19.116Z,95843.34
2022-10-01T10:50:46.346Z,95846.31
2022-10-01T10:53:21.695Z,95858.84
2022-10-01T10:56:04.502Z,95856.88
2022-10-01T10:58:33.682Z,95847.97
2022-10-01T11:01:14.859Z,95846.31
2022-10-01T11:03:50.129Z,95850.94
2022-10-01T11:06:18.035Z,95844.03
2022-10-01T11:08:47.659Z,95849.78
2022-10-01T11:11:38.331Z,95841.75
2022-10-01T11:14:42.868Z,95840.09
2022-10-01T11:17:27.683Z,95839.44
2022-10-01T11:20:33.946Z,95854.75
2022-10-01T11:23:20.125Z,95853.75
2022-10-01T11:26:08.748Z,95839.78
2022-10-01T11:28:51.753Z,95844.69
2022-10-01T11:31:30.424Z,95850.31
2022-10-01T11:34:37.262Z,95843.06
2022-10-01T11:37:27.719Z,95846.47
2022-10-01T11:39:59.331Z,95848.97
2022-10-01T11:42:34.442Z,95842.38
2022-10-01T11:45:15.706Z,95847.63
2022-10-01T11:47:53.642Z,95849.63
2022-10-01T11:50:22.823Z,95861.50
2022-10-01T11:53:13.488Z,95843.03
2022-10-01T11:55:56.159Z,95853.94
2022-10-01T11:58:38.090Z,95848.16
2022-10-01T12:01:15.275Z,95844.03
2022-10-01T12:03:53.784Z,95837.75
2022-10-01T12:06:34.286Z,95845.31
2022-10-01T12:09:46.326Z,95843.31
2022-10-01T12:12:40.190Z,95842.69
2022-10-01T12:15:18.571Z,95845.41
2022-10-01T12:18:03.222Z,95837.72
2022-10-01T12:20:43.285Z,95845.63
2022-10-01T12:23:30.630Z,95847.91
2022-10-01T12:26:06.074Z,95842.16
2022-10-01T12:28:56.688Z,95825.53
2022-10-01T12:31:55.358Z,95834.09
2022-10-01T12:34:30.580Z,95838.06
2022-10-01T12:37:17.577Z,95833.78
2022-10-01T12:40:15.409Z,95849.53
2022-10-01T12:43:12.251Z,95845.81
2022-10-01T12:46:10.040Z,95853.06
2022-10-01T12:48:42.143Z,95859.16
2022-10-01T12:51:33.416Z,95857.16
2022-10-01T12:54:18.343Z,95853.53
2022-10-01T12:57:25.658Z,95847.00
2022-10-01T13:00:05.480Z,95850.97
2022-10-01T13:03:04.750Z,95852.72
2022-10-01T13:06:00.281Z,95854.38
2022-10-01T13:08:58.261Z,95849.00
2022-10-01T13:12:09.291Z,95848.00
2022-10-01T13:14:36.267Z,95842.09
2022-10-01T13:17:13.762Z,95843.88
2022-10-01T13:19:57.491Z,95862.16
2022-10-01T13:23:11.811Z,95862.16
2022-10-01T13:26:07.194Z,95872.34
2022-10-01T13:29:08.028Z,95869.75
2022-10-01T13:31:59.351Z,95880.19
2022-10-01T13:34:41.350Z,95889.09
2022-10-01T13:37:12.161Z,95885.63
2022-10-01T13:39:39.679Z,95873.56
2022-10-01T13:42:06.214Z,95869.97
2022-10-01T13:44:35.549Z,95873.44
2022-10-01T13:47:07.570Z,95879.53
2022-10-01T13:49:37.409Z,95877.56
2022-10-01T13:52:04.780Z,95882.22
2022-10-01T13:54:45.009Z,95878.91
2022-10-01T13:57:36.393Z,95878.91
2022-10-01T14:00:22.169Z,95882.88
2022-10-01T14:03:28.952Z,95884.53
2022-10-01T14:06:02.037Z,95881.00
2022-10-01T14:08:37.545Z,95882.84
2022-10-01T14:11:12.800Z,95891.41
2022-10-01T14:13:47.418Z,95889.94
2022-10-01T14:16:16.006Z,95882.50
2022-10-01T14:18:48.774Z,95883.00
2022-10-01T14:21:40.557Z,95882.91
2022-10-01T14:24:27.608Z,95890.16
2022-10-01T14:27:02.343Z,95883.38
2022-10-01T14:29:34.594Z,95886.59
2022-10-01T14:32:35.046Z,95877.03
2022-10-01T14:35:25.488Z,95879.75
2022-10-01T14:37:59.157Z,95874.63
2022-10-01T14:40:25.907Z,95867.56
2022-10-01T14:43:00.573Z,95865.50
2022-10-01T14:45:28.573Z,95865.28
2022-10-01T14:48:06.909Z,95866.28
2022-10-01T14:50:37.697Z,95871.56
2022-10-01T14:53:06.078Z,95887.69
2022-10-01T14:55:35.013Z,95904.22
2022-10-01T14:58:01.792Z,95908.16
2022-10-01T15:00:30.866Z,95895.03
2022-10-01T15:03:14.366Z,95895.84
2022-10-01T15:05:43.247Z,95891.50
2022-10-01T15:08:40.582Z,95900.06
2022-10-01T15:11:14.159Z,95901.97
2022-10-01T15:13:44.491Z,95895.88
2022-10-01T15:16:18.681Z,95889.56
2022-10-01T15:18:50.644Z,95877.75
2022-10-01T15:21:32.832Z,95889.38
2022-10-01T15:23:59.557Z,95903.22
2022-10-01T15:26:27.530Z,95905.47
2022-10-01T15:29:26.305Z,95909.59
2022-10-01T15:31:55.969Z,95915.44
2022-10-01T15:34:25.786Z,95892.63
2022-10-01T15:36:54.539Z,95882.13
2022-10-01T15:39:37.279Z,95889.91
2022-10-01T15:42:24.516Z,95891.91
2022-10-01T15:45:20.183Z,95892.44
2022-10-01T15:47:50.221Z,95907.88
2022-10-01T15:50:27.310Z,95894.66
2022-10-01T15:53:04.432Z,95898.22
2022-10-01T15:55:41.877Z,95885.41
2022-10-01T15:58:11.044Z,95892.28
2022-10-01T16:01:01.292Z,95886.34
2022-10-01T16:03:33.631Z,95889.38
2022-10-01T16:06:02.751Z,95896.09
2022-10-01T16:08:46.654Z,95898.44
2022-10-01T16:11:13.066Z,95902.09
2022-10-01T16:13:45.740Z,95912.00
2022-10-01T16:16:29.942Z,95925.47
2022-10-01T16:18:59.606Z,95930.63
2022-10-01T16:21:26.811Z,95927.38
2022-10-01T16:23:54.722Z,95933.34
2022-10-01T16:26:26.983Z,95941.38
2022-10-01T16:28:58.297Z,95953.41
2022-10-01T16:31:25.611Z,95954.53
2022-10-01T16:33:52.971Z,95965.78
2022-10-01T16:36:20.960Z,95955.56
2022-10-01T16:38:48.077Z,95955.84
2022-10-01T16:41:22.063Z,95947.38
2022-10-01T16:43:54.841Z,95953.06
2022-10-01T16:46:21.674Z,95974.41
2022-10-01T16:48:50.702Z,95973.84
2022-10-01T16:51:18.076Z,95970.31
2022-10-01T16:53:44.687Z,95979.47
2022-10-01T16:56:11.991Z,95991.22
2022-10-01T16:58:38.597Z,95980.31
2022-10-01T17:01:09.691Z,95975.66
2022-10-01T17:03:36.512Z,95985.94
2022-10-01T17:06:03.518Z,95989.06
2022-10-01T17:08:30.411Z,95980.47
2022-10-01T17:11:00.365Z,95989.91
2022-10-01T17:13:28.899Z,95990.56
2022-10-01T17:15:55.853Z,95983.78
2022-10-01T17:18:22.645Z,95987.91
2022-10-01T17:20:49.396Z,95992.66
2022-10-01T17:23:18.803Z,96000.78
2022-10-01T17:25:46.405Z,95996.81
2022-10-01T17:28:16.351Z,95994.88
2022-10-01T17:30:45.018Z,95994.13
2022-10-01T17:33:12.784Z,95984.66
2022-10-01T17:35:44.874Z,95990.72
2022-10-01T17:38:12.683Z,95998.59
2022-10-01T17:40:40.128Z,96008.91
2022-10-01T17:43:06.756Z,95999.75
2022-10-01T17:45:33.259Z,95995.69
2022-10-01T17:47:59.943Z,95994.28
2022-10-01T17:50:26.454Z,95991.44
2022-10-01T17:52:52.897Z,95994.72
2022-10-01T17:55:19.387Z,96007.28
2022-10-01T17:57:45.862Z,96015.44
2022-10-01T18:00:12.834Z,96026.94
2022-10-01T18:02:43.331Z,96032.34
2022-10-01T18:05:11.687Z,96035.72
2022-10-01T18:07:38.284Z,96030.59
2022-10-01T18:10:07.441Z,96019.75
2022-10-01T18:12:34.811Z,96030.50
2022-10-01T18:15:01.839Z,96030.59
2022-10-01T18:17:28.335Z,96027.94
2022-10-01T18:19:54.791Z,96046.31
2022-10-01T18:22:21.721Z,96048.53
2022-10-01T18:24:48.177Z,96063.31
2022-10-01T18:27:15.661Z,96064.22
2022-10-01T18:29:42.212Z,96075.84
2022-10-01T18:32:18.929Z,96070.25
2022-10-01T18:34:49.935Z,96069.22
2022-10-01T18:37:40.343Z,96080.28
2022-10-01T18:40:12.328Z,96074.59
2022-10-01T18:43:11.015Z,96089.78
2022-10-01T18:45:49.173Z,96086.00
2022-10-01T18:48:46.200Z,96083.78
2022-10-01T18:51:21.622Z,96096.72
2022-10-01T18:54:06.413Z,96106.78
2022-10-01T18:56:35.804Z,96103.88
2022-10-01T18:59:02.378Z,96116.56
2022-10-01T19:01:40.636Z,96102.69
2022-10-01T19:04:13.040Z,96104.63
2022-10-01T19:06:54.130Z,96111.47
2022-10-01T19:09:29.535Z,96108.81
2022-10-01T19:12:45.413Z,96108.63
2022-10-01T19:15:17.843Z,96104.22
2022-10-01T19:18:07.296Z,96087.91
2022-10-01T19:20:48.149Z,96093.09
2022-10-01T19:23:26.342Z,96089.72
2022-10-01T19:26:07.841Z,96089.09
2022-10-01T19:29:10.717Z,96081.31
2022-10-01T19:32:02.583Z,96083.06
2022-10-01T19:34:42.666Z,96097.66
2022-10-01T19:37:33.426Z,96101.78
2022-10-01T19:40:14.586Z,96093.19
2022-10-01T19:42:49.064Z,96091.28
2022-10-01T19:45:26.062Z,96094.00
2022-10-01T19:48:20.707Z,96096.75
2022-10-01T19:50:56.502Z,96095.03
2022-10-01T19:53:29.055Z,96102.78
2022-10-01T19:56:00.549Z,96104.81
2022-10-01T19:58:27.651Z,96110.22
2022-10-01T20:00:57.812Z,96125.78
2022-10-01T20:03:39.741Z,96133.03
2022-10-01T20:06:13.518Z,96144.97
2022-10-01T20:08:49.810Z,96158.03
2022-10-01T20:11:26.863Z,96159.94
2022-10-01T20:14:28.736Z,96148.78
2022-10-01T20:16:55.376Z,96142.06
2022-10-01T20:19:35.618Z,96154.72
2022-10-01T20:23:00.805Z,96181.13
2022-10-01T20:25:48.752Z,96169.91
2022-10-01T20:28:27.417Z,96175.16
2022-10-01T20:31:16.050Z,96161.03
2022-10-01T20:33:47.270Z,96156.72
2022-10-01T20:36:25.828Z,96140.53
2022-10-01T20:39:05.857Z,96150.13
2022-10-01T20:41:42.637Z,96142.84
2022-10-01T20:44:16.992Z,96151.41
2022-10-01T20:46:49.236Z,96172.91
2022-10-01T20:49:30.725Z,96171.53
2022-10-01T20:52:35.325Z,96191.63
2022-10-01T20:55:18.214Z,96184.22
2022-10-01T20:57:50.347Z,96185.69
2022-10-01T21:00:21.403Z,96193.94
2022-10-01T21:03:16.617Z,96188.28
2022-10-01T21:05:49.357Z,96187.03
2022-10-01T21:08:45.012Z,96187.31
2022-10-01T21:11:21.937Z,96192.28
2022-10-01T21:14:03.492Z,96189.28
2022-10-01T21:16:45.401Z,96187.34
2022-10-01T21:19:37.103Z,96186.72
2022-10-01T21:22:33.234Z,96195.31
2022-10-01T21:25:29.887Z,96200.44
2022-10-01T21:28:21.853Z,96196.41
2022-10-01T21:31:16.290Z,96206.09
2022-10-01T21:33:57.275Z,96209.59
2022-10-01T21:36:36.993Z,96206.75
2022-10-01T21:39:17.965Z,96197.50
2022-10-01T21:42:06.788Z,96208.09
2022-10-01T21:44:46.217Z,96209.44
2022-10-01T21:47:42.520Z,96218.31
2022-10-01T21:50:17.625Z,96234.97
2022-10-01T21:53:05.890Z,96236.25
2022-10-01T21:55:47.125Z,96238.09
2022-10-01T21:58:49.529Z,96237.31
2022-10-01T22:01:52.324Z,96242.38
2022-10-01T22:04:30.089Z,96241.03
2022-10-01T22:07:08.821Z,96248.94
2022-10-01T22:09:49.603Z,96253.59
2022-10-01T22:12:16.718Z,96254.94
2022-10-01T22:14:44.348Z,96242.81
2022-10-01T22:17:19.757Z,96245.56
2022-10-01T22:19:51.142Z,96245.97
2022-10-01T22:22:35.136Z,96256.38
2022-10-01T22:25:03.496Z,96254.63
2022-10-01T22:27:29.880Z,96246.66
2022-10-01T22:30:18.739Z,96252.84
2022-10-01T22:33:07.297Z,96249.84
2022-10-01T22:35:50.802Z,96248.69
2022-10-01T22:38:33.765Z,96264.25
2022-10-01T22:41:07.332Z,96257.44
2022-10-01T22:43:33.842Z,96246.88
2022-10-01T22:46:24.837Z,96262.34
2022-10-01T22:49:07.041Z,96253.13
2022-10-01T22:52:11.690Z,96262.75
2022-10-01T22:54:43.837Z,96251.41
2022-10-01T22:57:35.142Z,96243.00
2022-10-01T23:00:07.746Z,96250.84
2022-10-01T23:02:41.319Z,96250.91
2022-10-01T23:05:31.879Z,96253.69
2022-10-01T23:08:25.669Z,96246.44
2022-10-01T23:11:18.166Z,96254.91
2022-10-01T23:14:20.464Z,96263.63
2022-10-01T23:17:03.385Z,96262.63
2022-10-01T23:19:45.043Z,96264.69
2022-10-01T23:22:53.412Z,96270.94
2022-10-01T23:25:51.769Z,96273.03
2022-10-01T23:28:29.583Z,96269.25
2022-10-01T23:31:12.646Z,96267.97
2022-10-01T23:34:10.484Z,96283.63
2022-10-01T23:36:49.122Z,96275.41
2022-10-01T23:39:33.634Z,96274.53
2022-10-01T23:42:18.755Z,96278.16
2022-10-01T23:45:09.034Z,96272.13
2022-10-01T23:47:51.882Z,96270.09
2022-10-01T23:50:37.135Z,96287.03
2022-10-01T23:53:11.107Z,96287.84
2022-10-01T23:55:46.546Z,96284.78
2022-10-01T23:58:16.700Z,96280.81
